Time;durP1;ratioP1;P1;durP2;ratioP2;P2;SDS_P1;SDS_P2;PMS_P1;PMS_P2;Temp;Humidity;BMP_temperature;BMP_pressure;BME280_temperature;BME280_humidity;BME280_pressure;Samples;Min_cycle;Max_cycle;Signal;HPM_P1;HPM_P2
2021/06/03 00:01:54;;;;;;;10.18;5.38;;;18.30;63.90;;;;;;5001091;28;20113;-70
2021/06/03 00:04:39;;;;;;;7.38;5.03;;;18.30;64.00;;;;;;5011192;28;20052;-70
2021/06/03 00:07:23;;;;;;;7.97;4.95;;;18.20;64.10;;;;;;5021544;28;20108;-71
2021/06/03 00:10:08;;;;;;;5.80;4.63;;;18.20;64.30;;;;;;5032205;28;20600;-71
2021/06/03 00:12:52;;;;;;;;;;;18.20;64.40;;;;;;5028327;28;20167;-71
2021/06/03 00:15:37;;;;;;;8.80;5.05;;;18.10;63.80;;;;;;5032011;28;20464;-71
2021/06/03 00:18:21;;;;;;;8.25;5.05;;;18.10;64.30;;;;;;5028380;28;20096;-71
2021/06/03 00:21:06;;;;;;;6.40;5.55;;;18.00;64.40;;;;;;5006729;28;20125;-71
2021/06/03 00:23:51;;;;;;;8.60;5.35;;;18.00;64.40;;;;;;5012234;28;20347;-70
2021/06/03 00:26:36;;;;;;;6.22;5.18;;;18.00;64.60;;;;;;5005765;28;20454;-70
2021/06/03 00:29:20;;;;;;;7.75;5.68;;;18.00;64.70;;;;;;5010757;28;20041;-70
2021/06/03 00:32:08;;;;;;;9.15;6.75;;;17.90;64.60;;;;;;5010806;28;20398;-70
2021/06/03 00:34:52;;;;;;;13.07;7.80;;;17.90;64.90;;;;;;5012034;28;20096;-69
2021/06/03 00:37:38;;;;;;;7.32;5.07;;;17.90;65.00;;;;;;5012652;28;20087;-70
2021/06/03 00:40:22;;;;;;;8.55;6.43;;;17.80;65.00;;;;;;5011446;28;20104;-70
2021/06/03 00:43:07;;;;;;;8.95;7.03;;;17.80;65.10;;;;;;5009113;28;20217;-70
2021/06/03 00:45:51;;;;;;;6.80;5.25;;;17.70;65.30;;;;;;5012967;28;20135;-71
2021/06/03 00:48:36;;;;;;;7.82;5.90;;;17.70;65.30;;;;;;4992130;28;20061;-71
2021/06/03 00:51:21;;;;;;;10.00;5.75;;;17.70;65.50;;;;;;4999909;28;20069;-70
2021/06/03 00:54:05;;;;;;;7.35;5.38;;;17.70;65.40;;;;;;5012027;28;20080;-70
2021/06/03 00:56:49;;;;;;;8.68;5.93;;;17.60;65.40;;;;;;5010447;28;20099;-70
2021/06/03 00:59:33;;;;;;;7.00;4.57;;;17.60;65.40;;;;;;5011561;28;20233;-72
2021/06/03 01:02:17;;;;;;;8.80;5.07;;;17.60;65.60;;;;;;5013903;28;20087;-71
2021/06/03 01:05:06;;;;;;;7.80;5.60;;;17.50;65.60;;;;;;5011593;28;20160;-71
2021/06/03 01:07:55;;;;;;;6.57;5.20;;;17.50;65.70;;;;;;5013344;28;20386;-71
2021/06/03 01:10:50;;;;;;;8.25;5.20;;;17.50;65.90;;;;;;5016145;28;20052;-70
2021/06/03 01:14:06;;;;;;;9.82;5.82;;;17.40;66.10;;;;;;4991975;28;20096;-71
2021/06/03 01:16:53;;;;;;;7.20;5.13;;;17.40;66.00;;;;;;5007905;28;20041;-71
2021/06/03 01:19:40;;;;;;;7.68;5.60;;;17.40;65.90;;;;;;5009511;28;20036;-71
2021/06/03 01:23:02;;;;;;;7.07;5.10;;;17.30;66.20;;;;;;5014094;28;20088;-71
2021/06/03 01:25:47;;;;;;;8.57;5.78;;;17.30;66.10;;;;;;5019105;28;20058;-70
2021/06/03 01:28:33;;;;;;;8.80;5.60;;;17.30;66.30;;;;;;4991930;28;20410;-70
2021/06/03 01:31:17;;;;;;;7.18;5.07;;;17.20;66.50;;;;;;5008990;28;20036;-70
2021/06/03 01:34:02;;;;;;;7.73;5.53;;;17.20;66.40;;;;;;5000061;28;20037;-70
2021/06/03 01:36:47;;;;;;;6.50;5.15;;;17.20;66.50;;;;;;5022027;28;20095;-70
2021/06/03 01:39:34;;;;;;;6.95;5.47;;;17.20;66.80;;;;;;5011881;28;20100;-70
2021/06/03 01:42:20;;;;;;;7.72;5.30;;;17.10;66.60;;;;;;5009652;28;20084;-70
2021/06/03 01:45:05;;;;;;;9.60;5.43;;;17.10;66.70;;;;;;5027448;28;20037;-70
2021/06/03 01:47:49;;;;;;;;;;;17.10;66.80;;;;;;5010635;28;20040;-70
2021/06/03 01:50:34;;;;;;;9.95;5.30;;;17.10;66.30;;;;;;4991734;28;20223;-70
2021/06/03 01:53:21;;;;;;;8.63;6.10;;;17.00;66.70;;;;;;5009820;28;20037;-70
2021/06/03 01:56:13;;;;;;;7.50;5.40;;;17.00;67.00;;;;;;5031324;28;20453;-70
2021/06/03 01:58:58;;;;;;;8.23;5.25;;;17.00;67.00;;;;;;5014300;28;20044;-69
2021/06/03 02:01:33;;;;;;;11.18;6.03;;;17.00;67.10;;;;;;4995396;28;20049;-74
2021/06/03 02:04:17;;;;;;;6.85;4.93;;;17.00;67.50;;;;;;5004939;28;20413;-72
2021/06/03 02:07:01;;;;;;;7.47;5.38;;;17.00;67.30;;;;;;5025826;28;20040;-71
2021/06/03 02:09:45;;;;;;;7.70;6.13;;;17.00;67.20;;;;;;5018008;28;20428;-75
2021/06/03 02:12:34;;;;;;;7.67;5.60;;;16.90;67.30;;;;;;5029173;28;20040;-75
2021/06/03 02:15:22;;;;;;;6.53;5.50;;;16.90;67.40;;;;;;5011683;28;20035;-73
2021/06/03 02:18:10;;;;;;;7.45;5.70;;;16.90;67.60;;;;;;5015702;28;20075;-74
2021/06/03 02:20:56;;;;;;;8.02;5.15;;;16.90;67.70;;;;;;5014708;28;20176;-74
2021/06/03 02:23:40;;;;;;;7.55;5.47;;;16.80;67.70;;;;;;5014786;28;20040;-74
2021/06/03 02:26:26;;;;;;;8.25;5.45;;;16.80;67.60;;;;;;5018446;28;20036;-74
2021/06/03 02:29:11;;;;;;;;;;;16.80;67.80;;;;;;5023186;28;20103;-74
2021/06/03 02:31:55;;;;;;;8.27;5.32;;;16.80;67.30;;;;;;5021182;28;19915;-74
2021/06/03 02:34:40;;;;;;;7.47;5.57;;;16.70;68.10;;;;;;5018618;28;20052;-74
2021/06/03 02:37:25;;;;;;;;;;;16.70;68.00;;;;;;5026065;28;20036;-74
2021/06/03 02:40:17;;;;;;;7.15;5.50;;;16.70;67.50;;;;;;5011535;28;19952;-74
2021/06/03 02:43:01;;;;;;;7.28;5.07;;;16.60;68.20;;;;;;5027591;28;20037;-74
2021/06/03 02:45:46;;;;;;;8.55;5.22;;;16.60;68.50;;;;;;4997703;28;20080;-73
2021/06/03 02:48:30;;;;;;;9.37;5.80;;;16.60;68.60;;;;;;5025529;28;20406;-73
2021/06/03 02:51:14;;;;;;;7.78;5.57;;;16.60;68.70;;;;;;5017953;28;20035;-73
2021/06/03 02:53:58;;;;;;;;;;;16.50;68.80;;;;;;5016785;28;20053;-73
2021/06/03 02:56:43;;;;;;;9.10;5.78;;;16.50;68.20;;;;;;5010134;28;19916;-74
2021/06/03 02:59:27;;;;;;;8.55;5.85;;;16.50;68.80;;;;;;5018626;28;20767;-74
2021/06/03 03:02:11;;;;;;;9.40;5.55;;;16.40;69.00;;;;;;5024481;28;20057;-74
2021/06/03 03:04:55;;;;;;;7.80;6.00;;;16.40;69.10;;;;;;5015610;28;20133;-74
2021/06/03 03:07:40;;;;;;;8.65;5.43;;;16.40;69.30;;;;;;5024277;28;20032;-74
2021/06/03 03:10:27;;;;;;;7.40;5.13;;;16.30;69.50;;;;;;5013564;28;20049;-74
2021/06/03 03:13:13;;;;;;;11.82;5.95;;;16.30;69.60;;;;;;5010506;28;20041;-74
2021/06/03 03:15:57;;;;;;;6.70;5.55;;;16.30;69.70;;;;;;5016301;28;20086;-74
2021/06/03 03:18:41;;;;;;;7.45;5.60;;;16.30;69.70;;;;;;5020570;28;20553;-74
2021/06/03 03:21:25;;;;;;;7.55;5.50;;;16.20;69.60;;;;;;5006096;28;20079;-73
2021/06/03 03:24:09;;;;;;;7.30;5.70;;;16.30;69.70;;;;;;5021266;28;20445;-74
2021/06/03 03:26:53;;;;;;;8.15;5.65;;;16.30;69.50;;;;;;5026336;28;20394;-74
2021/06/03 03:29:37;;;;;;;7.43;5.75;;;16.30;69.60;;;;;;5017713;28;20569;-74
2021/06/03 03:32:21;;;;;;;9.05;5.82;;;16.30;69.60;;;;;;5029441;28;20040;-73
2021/06/03 03:35:07;;;;;;;8.45;5.63;;;16.30;69.80;;;;;;5013670;28;20092;-73
2021/06/03 03:37:51;;;;;;;8.02;5.85;;;16.30;69.70;;;;;;5012587;28;20045;-74
2021/06/03 03:40:36;;;;;;;9.68;5.50;;;16.30;69.80;;;;;;5002888;28;20056;-74
2021/06/03 03:43:20;;;;;;;7.65;5.30;;;16.30;69.70;;;;;;5027158;28;20037;-74
2021/06/03 03:46:04;;;;;;;8.43;5.30;;;16.30;69.80;;;;;;5021040;28;20076;-74
2021/06/03 03:48:48;;;;;;;6.50;5.13;;;16.30;69.80;;;;;;5024035;28;20044;-74
2021/06/03 03:51:32;;;;;;;10.55;5.53;;;16.30;70.00;;;;;;5023502;28;20043;-74
2021/06/03 03:54:17;;;;;;;7.10;5.70;;;16.30;69.70;;;;;;5019947;28;20397;-74
2021/06/03 03:57:02;;;;;;;9.60;5.65;;;16.40;69.90;;;;;;5013105;28;20052;-74
2021/06/03 03:59:46;;;;;;;9.40;5.50;;;16.40;70.20;;;;;;5011297;28;20457;-74
2021/06/03 04:02:21;;;;;;;7.97;5.70;;;16.40;70.10;;;;;;4997382;28;20042;-73
2021/06/03 04:05:06;;;;;;;7.38;5.30;;;16.40;70.10;;;;;;5010621;28;20049;-73
2021/06/03 04:07:50;;;;;;;7.90;5.07;;;16.50;69.90;;;;;;5015651;28;20129;-74
2021/06/03 04:10:35;;;;;;;9.27;5.53;;;16.40;69.80;;;;;;5013212;28;20539;-74
2021/06/03 04:13:19;;;;;;;9.80;5.88;;;16.40;69.80;;;;;;5005734;28;20300;-74
2021/06/03 04:16:04;;;;;;;9.90;5.63;;;16.50;69.80;;;;;;5020123;28;20375;-74
2021/06/03 04:18:48;;;;;;;9.63;6.05;;;16.50;69.70;;;;;;5023211;28;20053;-74
2021/06/03 04:21:32;;;;;;;11.07;5.18;;;16.50;69.80;;;;;;5011526;28;20060;-74
2021/06/03 04:24:17;;;;;;;8.13;5.15;;;16.50;70.00;;;;;;5009871;28;20064;-74
2021/06/03 04:27:01;;;;;;;7.83;5.40;;;16.60;70.00;;;;;;5015100;28;20061;-74
2021/06/03 04:29:45;;;;;;;9.57;5.73;;;16.60;69.60;;;;;;5002710;28;20105;-74
2021/06/03 04:32:29;;;;;;;7.18;5.65;;;16.60;69.80;;;;;;5010647;28;20300;-74
2021/06/03 04:35:15;;;;;;;7.93;5.17;;;16.70;69.60;;;;;;5011883;28;20033;-75
2021/06/03 04:37:58;;;;;;;8.90;5.88;;;16.70;69.60;;;;;;5003679;28;20556;-74
2021/06/03 04:40:43;;;;;;;8.13;6.00;;;16.70;69.80;;;;;;5012524;28;20059;-74
2021/06/03 04:43:27;;;;;;;7.43;5.50;;;16.70;69.70;;;;;;5026386;28;20434;-74
2021/06/03 04:46:12;;;;;;;13.00;5.45;;;16.80;70.10;;;;;;5025316;28;20298;-74
2021/06/03 04:48:56;;;;;;;7.10;5.38;;;16.80;69.80;;;;;;5021911;28;20041;-75
2021/06/03 04:51:40;;;;;;;8.80;5.30;;;16.80;70.00;;;;;;5028022;28;20052;-75
2021/06/03 04:54:24;;;;;;;7.47;5.00;;;16.90;69.70;;;;;;5019237;28;20389;-74
2021/06/03 04:57:09;;;;;;;7.95;5.82;;;16.90;70.00;;;;;;5031843;28;20040;-74
2021/06/03 04:59:53;;;;;;;7.80;5.20;;;17.00;69.80;;;;;;5017757;28;20035;-74
2021/06/03 05:02:37;;;;;;;10.03;5.70;;;17.00;69.50;;;;;;5028455;28;20104;-76
2021/06/03 05:05:22;;;;;;;8.48;5.57;;;17.00;69.50;;;;;;5018820;28;20052;-74
2021/06/03 05:08:07;;;;;;;8.85;4.78;;;17.10;69.80;;;;;;5028016;28;20440;-74
2021/06/03 05:10:51;;;;;;;8.18;5.85;;;17.10;69.60;;;;;;5015053;28;20121;-73
2021/06/03 05:13:35;;;;;;;10.38;5.40;;;17.20;69.40;;;;;;5010160;28;20108;-73
2021/06/03 05:16:19;;;;;;;6.90;5.13;;;17.20;69.50;;;;;;5029710;28;20512;-73
2021/06/03 05:19:03;;;;;;;10.57;5.43;;;17.30;69.50;;;;;;5018430;28;20179;-73
2021/06/03 05:21:47;;;;;;;9.10;5.63;;;17.40;69.20;;;;;;4992091;28;20157;-73
2021/06/03 05:24:31;;;;;;;9.00;5.22;;;17.40;69.00;;;;;;5006022;28;20045;-74
2021/06/03 05:27:15;;;;;;;11.75;5.38;;;17.50;68.70;;;;;;5031588;28;20079;-75
2021/06/03 05:29:59;;;;;;;8.88;5.85;;;17.50;69.00;;;;;;5018440;28;20554;-75
2021/06/03 05:32:44;;;;;;;10.73;5.55;;;17.60;68.70;;;;;;5023180;28;20095;-74
2021/06/03 05:35:29;;;;;;;10.23;5.35;;;17.60;68.50;;;;;;4992311;28;20046;-75
2021/06/03 05:38:13;;;;;;;10.48;5.53;;;17.70;68.70;;;;;;4995864;28;20130;-74
2021/06/03 05:40:58;;;;;;;7.82;5.47;;;17.80;68.50;;;;;;5027877;28;20159;-74
2021/06/03 05:43:42;;;;;;;;;;;17.80;68.40;;;;;;5028688;28;20029;-74
2021/06/03 05:46:26;;;;;;;10.02;5.22;;;17.90;68.10;;;;;;5041413;28;19920;-73
2021/06/03 05:49:11;;;;;;;9.65;4.97;;;17.90;68.30;;;;;;5031897;28;20041;-74
2021/06/03 05:52:01;;;;;;;8.90;5.20;;;18.00;68.20;;;;;;5042773;28;20040;-72
2021/06/03 05:54:45;;;;;;;9.02;5.10;;;18.10;68.30;;;;;;5030710;28;20052;-73
2021/06/03 05:57:29;;;;;;;10.67;5.30;;;18.20;68.00;;;;;;5045347;28;20040;-72
2021/06/03 06:00:16;;;;;;;7.83;4.87;;;18.30;68.00;;;;;;5031111;28;20310;-72
2021/06/03 06:03:22;;;;;;;9.07;4.88;;;18.30;67.60;;;;;;5013181;28;20056;-72
2021/06/03 06:06:23;;;;;;;9.10;5.70;;;18.40;67.60;;;;;;5028721;28;20043;-72
2021/06/03 06:09:10;;;;;;;7.68;4.85;;;18.50;66.80;;;;;;5027766;28;20052;-73
2021/06/03 06:11:55;;;;;;;6.10;4.25;;;18.60;66.60;;;;;;5000706;28;20544;-72
2021/06/03 06:14:39;;;;;;;9.17;4.70;;;18.70;66.10;;;;;;5010587;28;20124;-73
2021/06/03 06:17:23;;;;;;;9.43;5.07;;;18.80;66.00;;;;;;5036201;28;20036;-73
2021/06/03 06:20:08;;;;;;;8.10;4.93;;;18.90;65.30;;;;;;5019680;28;20040;-73
2021/06/03 06:22:54;;;;;;;7.53;4.78;;;19.00;65.00;;;;;;5035073;28;20121;-73
2021/06/03 06:25:38;;;;;;;7.45;4.55;;;19.00;64.80;;;;;;5015996;28;20544;-73
2021/06/03 06:28:22;;;;;;;10.20;4.60;;;19.10;65.50;;;;;;5029768;28;20037;-75
2021/06/03 06:31:07;;;;;;;6.00;4.53;;;19.20;64.80;;;;;;5023494;28;20041;-74
2021/06/03 06:33:52;;;;;;;8.93;4.88;;;19.30;64.40;;;;;;5007626;28;20101;-75
2021/06/03 06:36:36;;;;;;;8.17;4.40;;;19.40;64.00;;;;;;5021837;28;20045;-74
2021/06/03 06:39:19;;;;;;;7.38;4.75;;;19.50;63.50;;;;;;5016772;28;20129;-71
2021/06/03 06:42:05;;;;;;;7.53;4.45;;;19.60;63.70;;;;;;5029538;28;20108;-72
2021/06/03 06:44:49;;;;;;;8.27;4.78;;;19.70;63.30;;;;;;5001709;28;20060;-72
2021/06/03 06:47:35;;;;;;;7.73;4.90;;;19.70;62.90;;;;;;4997535;28;20068;-72
2021/06/03 06:50:20;;;;;;;8.13;4.70;;;19.80;62.50;;;;;;5002316;28;20284;-74
2021/06/03 06:53:06;;;;;;;9.30;4.30;;;19.90;62.10;;;;;;5003781;28;20040;-73
2021/06/03 06:55:51;;;;;;;7.35;4.65;;;20.00;61.60;;;;;;5007642;28;20121;-74
2021/06/03 06:58:34;;;;;;;6.35;4.28;;;20.10;61.20;;;;;;5008571;28;20496;-76
2021/06/03 07:01:02;;;;;;;9.52;4.50;;;20.10;61.20;;;;;;4999566;28;20030;-76
2021/06/03 07:03:27;;;;;;;7.60;4.90;;;20.20;60.70;;;;;;4998654;28;20494;-77
2021/06/03 07:05:53;;;;;;;9.30;4.75;;;20.30;60.20;;;;;;4998313;28;20038;-74
2021/06/03 07:08:19;;;;;;;6.72;4.75;;;20.30;59.90;;;;;;4999310;28;20033;-75
2021/06/03 07:10:45;;;;;;;8.35;4.20;;;20.40;60.00;;;;;;5000191;28;20538;-76
2021/06/03 07:13:10;;;;;;;9.43;4.45;;;20.50;59.80;;;;;;4995023;28;20493;-76
2021/06/03 07:15:36;;;;;;;9.30;4.63;;;20.60;59.30;;;;;;5011964;28;20030;-76
2021/06/03 07:18:01;;;;;;;9.77;4.50;;;20.70;59.50;;;;;;5009594;28;20034;-76
2021/06/03 07:20:27;;;;;;;7.97;4.50;;;20.80;59.30;;;;;;5006495;28;20034;-76
2021/06/03 07:22:55;;;;;;;7.80;4.55;;;20.90;59.20;;;;;;5008772;28;20022;-76
2021/06/03 07:25:22;;;;;;;6.88;4.38;;;21.00;58.30;;;;;;5010638;28;20461;-76
2021/06/03 07:27:49;;;;;;;5.88;4.22;;;21.00;58.00;;;;;;5002842;28;20023;-76
2021/06/03 07:30:16;;;;;;;7.47;4.50;;;21.10;58.30;;;;;;5007513;28;20030;-76
2021/06/03 07:32:42;;;;;;;7.13;4.35;;;21.20;57.80;;;;;;5008470;28;20049;-76
2021/06/03 07:35:09;;;;;;;9.70;4.13;;;21.30;57.60;;;;;;5003102;28;20080;-77
2021/06/03 07:37:39;;;;;;;7.97;3.83;;;21.40;56.80;;;;;;5011872;28;20030;-76
2021/06/03 07:40:08;;;;;;;6.88;3.75;;;21.50;55.90;;;;;;5009987;28;20103;-76
2021/06/03 07:42:33;;;;;;;5.57;4.05;;;21.60;55.70;;;;;;5004535;28;20029;-77
2021/06/03 07:44:59;;;;;;;10.90;4.15;;;21.70;55.80;;;;;;4999570;28;20541;-76
2021/06/03 07:47:24;;;;;;;7.10;3.80;;;21.70;55.20;;;;;;4999761;28;20026;-76
2021/06/03 07:49:50;;;;;;;5.90;4.18;;;21.80;55.60;;;;;;5012420;28;20034;-77
2021/06/03 07:52:15;;;;;;;9.13;4.32;;;21.80;55.60;;;;;;5005291;28;20466;-76
2021/06/03 07:54:41;;;;;;;6.45;4.38;;;21.90;55.30;;;;;;5008574;28;20105;-77
2021/06/03 07:57:07;;;;;;;6.03;3.80;;;22.00;55.00;;;;;;5011490;28;20041;-77
2021/06/03 07:59:32;;;;;;;7.20;4.13;;;22.20;54.40;;;;;;5006567;28;20093;-75
2021/06/03 08:01:58;;;;;;;7.95;4.68;;;22.20;54.40;;;;;;5006202;28;20033;-80
2021/06/03 08:04:23;;;;;;;7.78;4.28;;;22.30;53.60;;;;;;5003855;28;20290;-75
2021/06/03 08:06:49;;;;;;;6.22;4.28;;;22.30;53.40;;;;;;5008327;28;20038;-75
2021/06/03 08:09:15;;;;;;;5.80;3.72;;;22.40;53.20;;;;;;5010924;28;20382;-75
2021/06/03 08:11:44;;;;;;;5.28;4.00;;;22.50;53.50;;;;;;5010436;28;20037;-75
2021/06/03 08:14:09;;;;;;;9.35;4.00;;;22.50;53.10;;;;;;5010997;28;20084;-77
2021/06/03 08:16:35;;;;;;;7.05;4.22;;;22.60;53.10;;;;;;5011776;28;20038;-76
2021/06/03 08:19:00;;;;;;;7.25;4.13;;;22.70;52.70;;;;;;5011356;28;20501;-77
2021/06/03 08:21:26;;;;;;;9.13;4.43;;;22.80;52.90;;;;;;5012161;28;20026;-77
2021/06/03 08:23:51;;;;;;;7.38;4.63;;;22.80;52.70;;;;;;5007759;28;20394;-77
2021/06/03 08:26:17;;;;;;;6.93;3.95;;;22.90;52.30;;;;;;4998027;28;20022;-77
2021/06/03 08:28:43;;;;;;;9.00;4.03;;;23.00;51.90;;;;;;5010998;28;20482;-77
2021/06/03 08:31:09;;;;;;;5.50;4.10;;;23.10;51.10;;;;;;5012771;28;20371;-77
2021/06/03 08:33:35;;;;;;;5.78;3.83;;;23.10;50.80;;;;;;5011686;28;20036;-77
2021/06/03 08:36:01;;;;;;;5.43;4.20;;;23.20;51.20;;;;;;5027843;28;20072;-76
2021/06/03 08:38:26;;;;;;;10.32;4.35;;;23.20;50.00;;;;;;5009697;28;20496;-77
2021/06/03 08:40:58;;;;;;;6.45;3.60;;;23.30;50.30;;;;;;5009773;28;20056;-77
2021/06/03 08:43:26;;;;;;;5.13;3.75;;;23.40;50.80;;;;;;5010349;28;20030;-77
2021/06/03 08:45:53;;;;;;;8.48;3.67;;;23.50;49.30;;;;;;5009130;28;20516;-76
2021/06/03 08:48:18;;;;;;;4.90;3.53;;;23.60;48.80;;;;;;5007758;28;20429;-77
2021/06/03 08:50:47;;;;;;;6.22;3.63;;;23.60;48.50;;;;;;5006653;28;20034;-77
2021/06/03 08:53:13;;;;;;;8.38;4.45;;;23.70;47.70;;;;;;5009232;28;20033;-75
2021/06/03 08:58:26;;;;;;;5.60;3.58;;;23.80;48.10;;;;;;4994078;28;20058;-79
2021/06/03 09:00:54;;;;;;;5.13;3.72;;;23.90;47.80;;;;;;5008477;28;20037;-79
2021/06/03 09:03:23;;;;;;;7.05;3.75;;;24.00;47.40;;;;;;5015607;28;20689;-78
2021/06/03 09:05:49;;;;;;;7.53;3.50;;;24.00;46.90;;;;;;5013276;28;20037;-78
2021/06/03 09:08:15;;;;;;;9.82;3.65;;;24.10;47.70;;;;;;5007735;28;20382;-79
2021/06/03 09:11:03;;;;;;;6.50;3.35;;;24.20;47.50;;;;;;5006259;28;20147;-78
2021/06/03 09:13:54;;;;;;;5.25;3.17;;;24.30;46.70;;;;;;5007590;28;20044;-79
2021/06/03 09:16:39;;;;;;;5.35;3.58;;;24.30;45.80;;;;;;5028838;28;20514;-79
2021/06/03 09:19:23;;;;;;;7.85;3.42;;;24.50;45.10;;;;;;5013799;28;20091;-78
2021/06/03 09:22:07;;;;;;;4.28;2.80;;;24.50;44.30;;;;;;5014325;28;20036;-78
2021/06/03 09:24:51;;;;;;;10.70;3.88;;;24.50;43.80;;;;;;5014003;28;20060;-77
2021/06/03 09:27:35;;;;;;;4.55;3.28;;;24.60;43.80;;;;;;5015550;28;20497;-79
2021/06/03 09:30:19;;;;;;;5.18;3.45;;;24.60;43.80;;;;;;5013777;28;20402;-78
2021/06/03 09:33:06;;;;;;;5.60;3.03;;;24.70;43.70;;;;;;5014236;28;20127;-78
2021/06/03 09:35:57;;;;;;;5.40;3.45;;;24.70;43.20;;;;;;5003053;28;20045;-79
2021/06/03 09:39:01;;;;;;;4.60;2.67;;;24.70;42.50;;;;;;5014240;28;20041;-78
2021/06/03 09:41:55;;;;;;;4.97;2.88;;;24.80;42.90;;;;;;5015188;28;20032;-79
2021/06/03 09:44:46;;;;;;;4.47;3.00;;;24.90;42.00;;;;;;5007229;28;20033;-80
2021/06/03 09:47:38;;;;;;;6.90;3.38;;;24.90;42.40;;;;;;5015700;28;20268;-79
2021/06/03 09:50:23;;;;;;;5.25;3.42;;;24.90;41.90;;;;;;5003851;28;20077;-79
2021/06/03 09:53:08;;;;;;;5.07;2.85;;;25.00;42.10;;;;;;5012704;28;20137;-79
2021/06/03 09:55:52;;;;;;;5.88;3.40;;;25.10;41.20;;;;;;4996719;28;20037;-81
2021/06/03 09:58:40;;;;;;;4.13;2.92;;;25.10;41.70;;;;;;5006683;28;20037;-79
2021/06/03 10:01:41;;;;;;;4.55;3.05;;;25.10;41.60;;;;;;5025079;28;20036;-78
2021/06/03 10:04:44;;;;;;;8.10;3.60;;;25.20;42.10;;;;;;5000162;28;20057;-79
2021/06/03 10:07:31;;;;;;;6.18;3.50;;;25.20;42.10;;;;;;5011342;28;20390;-79
2021/06/03 10:10:15;;;;;;;5.35;3.42;;;25.30;42.10;;;;;;4999183;28;20044;-79
2021/06/03 10:13:07;;;;;;;7.57;3.30;;;25.30;41.70;;;;;;5012440;28;20036;-78
2021/06/03 10:15:52;;;;;;;4.85;2.90;;;25.40;42.10;;;;;;5014142;28;20133;-79
2021/06/03 10:18:36;;;;;;;4.20;3.03;;;25.50;42.40;;;;;;5008832;28;20053;-75
2021/06/03 10:21:20;;;;;;;7.30;3.60;;;25.60;42.40;;;;;;5014693;28;20041;-79
2021/06/03 10:24:04;;;;;;;4.93;2.22;;;25.60;41.50;;;;;;5009523;28;20072;-80
2021/06/03 10:26:57;;;;;;;4.78;2.70;;;25.60;40.80;;;;;;5013860;28;20123;-82
2021/06/03 10:29:42;;;;;;;4.70;3.15;;;25.60;40.60;;;;;;5013070;28;20173;-81
2021/06/03 10:32:30;;;;;;;5.07;2.80;;;25.60;40.30;;;;;;5012074;28;20060;-80
2021/06/03 10:35:21;;;;;;;5.30;2.83;;;25.60;40.40;;;;;;5014614;28;20088;-79
2021/06/03 10:38:08;;;;;;;5.20;3.00;;;25.60;40.80;;;;;;5011366;28;20374;-81
2021/06/03 10:40:55;;;;;;;5.68;3.05;;;25.60;40.60;;;;;;5006424;28;20040;-81
2021/06/03 10:43:39;;;;;;;5.93;3.15;;;25.70;40.90;;;;;;5013656;28;20037;-79
2021/06/03 10:46:25;;;;;;;5.15;3.08;;;25.70;40.70;;;;;;5001911;28;20036;-80
2021/06/03 10:49:11;;;;;;;4.65;3.25;;;25.80;41.50;;;;;;4997107;28;20453;-81
2021/06/03 10:51:55;;;;;;;5.72;3.13;;;25.80;41.00;;;;;;5003555;28;20040;-80
2021/06/03 10:54:48;;;;;;;5.43;3.10;;;26.00;41.50;;;;;;4998151;28;20445;-81
2021/06/03 10:57:51;;;;;;;4.15;3.05;;;26.00;41.00;;;;;;5005790;28;20048;-80
2021/06/03 11:00:44;;;;;;;5.95;3.22;;;26.00;40.30;;;;;;5007451;28;20128;-81
2021/06/03 11:03:46;;;;;;;5.97;3.33;;;26.00;40.60;;;;;;5010698;28;20560;-83
2021/06/03 11:06:42;;;;;;;4.90;3.30;;;26.00;40.60;;;;;;5017406;28;20044;-81
2021/06/03 11:09:09;;;;;;;7.22;3.08;;;26.10;41.30;;;;;;5006240;28;20061;-81
2021/06/03 11:12:26;;;;;;;4.57;3.28;;;26.10;41.30;;;;;;5015326;28;20407;-80
2021/06/03 11:15:14;;;;;;;4.43;2.65;;;26.20;40.60;;;;;;4992267;28;20092;-80
2021/06/03 11:18:02;;;;;;;3.50;2.90;;;26.20;39.90;;;;;;5011498;28;20436;-82
2021/06/03 11:20:48;;;;;;;5.70;2.92;;;26.20;40.30;;;;;;5004070;28;20033;-81
2021/06/03 11:23:39;;;;;;;3.60;2.78;;;26.30;40.70;;;;;;5015361;28;20089;-81
2021/06/03 11:29:28;;;;;;;5.55;2.90;;;26.30;39.80;;;;;;5000087;28;20038;-82
2021/06/03 11:32:12;;;;;;;6.18;3.15;;;26.30;40.00;;;;;;5004356;28;20398;-81
2021/06/03 11:34:59;;;;;;;9.65;3.53;;;26.40;39.60;;;;;;5006521;28;20040;-80
2021/06/03 11:37:46;;;;;;;4.97;3.15;;;26.40;39.70;;;;;;5011206;28;20533;-80
2021/06/03 11:40:30;;;;;;;9.60;3.88;;;26.40;39.30;;;;;;4994355;28;20414;-80
2021/06/03 11:43:14;;;;;;;4.68;3.08;;;26.40;39.60;;;;;;5006359;28;20048;-80
2021/06/03 11:45:58;;;;;;;4.88;2.92;;;26.40;39.80;;;;;;4997091;28;20045;-79
2021/06/03 11:48:42;;;;;;;4.32;3.08;;;26.50;39.40;;;;;;4999124;28;20067;-79
2021/06/03 11:51:09;;;;;;;7.20;3.30;;;26.40;39.30;;;;;;5004847;28;20033;-77
2021/06/03 11:53:47;;;;;;;4.43;3.10;;;26.50;39.70;;;;;;5005729;28;20508;-78
2021/06/03 11:56:16;;;;;;;7.70;3.20;;;26.50;39.50;;;;;;5007761;28;20026;-78
2021/06/03 11:58:42;;;;;;;5.47;3.42;;;26.50;39.70;;;;;;5005604;28;20048;-80
2021/06/03 12:01:16;;;;;;;5.68;2.90;;;26.60;39.70;;;;;;5010249;28;20029;-81
2021/06/03 12:03:47;;;;;;;5.55;3.10;;;26.60;38.90;;;;;;5011762;28;20135;-78
2021/06/03 12:06:37;;;;;;;3.40;2.75;;;26.60;38.90;;;;;;5004939;28;20359;-78
2021/06/03 12:09:20;;;;;;;7.38;3.58;;;26.60;39.40;;;;;;5009832;28;20049;-78
2021/06/03 12:11:48;;;;;;;4.82;3.20;;;26.70;40.30;;;;;;5011399;28;20387;-78
2021/06/03 12:14:26;;;;;;;5.50;3.53;;;26.70;40.30;;;;;;5003262;28;20034;-79
2021/06/03 12:16:59;;;;;;;3.95;2.60;;;26.80;39.70;;;;;;5004813;28;20788;-79
2021/06/03 12:19:31;;;;;;;6.63;3.35;;;26.90;39.50;;;;;;5009592;28;20049;-78
2021/06/03 12:22:04;;;;;;;3.97;2.97;;;26.90;38.90;;;;;;4997766;28;20386;-77
2021/06/03 12:24:48;;;;;;;4.35;3.05;;;26.90;38.80;;;;;;4997128;28;20402;-78
2021/06/03 12:27:42;;;;;;;8.70;3.10;;;27.00;39.70;;;;;;5001232;28;20419;-78
2021/06/03 12:30:23;;;;;;;3.33;2.60;;;27.10;40.00;;;;;;5001555;28;20030;-77
2021/06/03 12:33:08;;;;;;;4.60;3.05;;;27.20;38.90;;;;;;4993272;28;20398;-76
2021/06/03 12:35:36;;;;;;;5.57;3.45;;;27.30;38.80;;;;;;4999561;28;20479;-78
2021/06/03 12:38:02;;;;;;;5.00;3.10;;;27.30;38.50;;;;;;5003892;28;20438;-77
2021/06/03 12:40:29;;;;;;;3.55;2.83;;;27.40;38.70;;;;;;5010817;28;20036;-77
2021/06/03 12:43:09;;;;;;;4.13;2.90;;;27.50;38.30;;;;;;5007490;28;20104;-77
2021/06/03 12:45:38;;;;;;;5.22;2.65;;;27.50;38.60;;;;;;4990980;28;20034;-76
2021/06/03 12:48:07;;;;;;;6.80;3.20;;;27.70;38.80;;;;;;5003736;28;20467;-78
2021/06/03 12:50:37;;;;;;;6.70;2.90;;;27.70;38.30;;;;;;5000557;28;20041;-77
2021/06/03 12:53:08;;;;;;;6.28;3.40;;;27.80;38.10;;;;;;5003197;28;20022;-77
2021/06/03 12:55:34;;;;;;;6.18;2.80;;;27.80;38.00;;;;;;5007103;28;20119;-77
2021/06/03 12:58:06;;;;;;;4.18;3.00;;;27.90;37.60;;;;;;5009416;28;20481;-77
2021/06/03 13:00:32;;;;;;;3.88;3.05;;;27.90;37.60;;;;;;5004649;28;20034;-77
2021/06/03 13:03:09;;;;;;;5.28;3.10;;;27.90;37.20;;;;;;5010993;28;20077;-77
2021/06/03 13:05:35;;;;;;;5.03;2.97;;;27.90;37.10;;;;;;5004644;28;20038;-77
2021/06/03 13:08:00;;;;;;;3.72;2.78;;;27.90;37.30;;;;;;5004878;28;20512;-77
2021/06/03 13:10:26;;;;;;;4.10;2.92;;;27.90;37.00;;;;;;5003803;28;20030;-76
2021/06/03 13:13:00;;;;;;;5.20;3.03;;;28.00;37.60;;;;;;5006730;28;20026;-77
2021/06/03 13:15:26;;;;;;;5.50;2.83;;;28.10;37.40;;;;;;5001251;28;20536;-75
2021/06/03 13:17:54;;;;;;;5.38;3.10;;;28.10;36.90;;;;;;5002949;28;20478;-75
2021/06/03 13:20:23;;;;;;;10.77;3.03;;;28.20;36.70;;;;;;4998216;28;20113;-75
2021/06/03 13:22:56;;;;;;;7.57;3.40;;;28.30;36.90;;;;;;5004084;28;20026;-75
2021/06/03 13:25:23;;;;;;;3.42;2.85;;;28.40;37.00;;;;;;5007167;28;20026;-75
2021/06/03 13:27:49;;;;;;;4.53;2.63;;;28.40;36.40;;;;;;5006957;28;20117;-78
2021/06/03 13:30:29;;;;;;;3.70;2.90;;;28.50;36.90;;;;;;5003851;28;20022;-77
2021/06/03 13:33:08;;;;;;;6.75;2.70;;;28.50;36.40;;;;;;5005596;28;20050;-75
2021/06/03 13:35:34;;;;;;;4.55;2.92;;;28.50;36.50;;;;;;4997861;28;20069;-76
2021/06/03 13:38:02;;;;;;;4.65;2.95;;;28.60;36.40;;;;;;4997421;28;20030;-76
2021/06/03 13:40:28;;;;;;;4.43;3.15;;;28.70;36.20;;;;;;4994687;28;20095;-76
2021/06/03 13:42:59;;;;;;;5.07;2.67;;;28.70;36.10;;;;;;4996261;28;20409;-76
2021/06/03 13:45:37;;;;;;;5.03;2.90;;;28.80;36.10;;;;;;5009121;28;20029;-75
2021/06/03 13:48:29;;;;;;;4.00;3.00;;;28.90;35.90;;;;;;5015254;28;20155;-76
2021/06/03 13:51:05;;;;;;;4.10;2.88;;;28.90;35.80;;;;;;5004847;28;20030;-72
2021/06/03 13:53:36;;;;;;;7.15;2.95;;;28.90;36.30;;;;;;5005817;28;20030;-72
2021/06/03 13:56:07;;;;;;;4.55;2.80;;;29.00;35.60;;;;;;4994845;28;20046;-72
2021/06/03 13:58:48;;;;;;;3.83;3.08;;;29.10;36.20;;;;;;4998904;28;20038;-72
2021/06/03 14:01:32;;;;;;;4.35;3.30;;;29.20;36.20;;;;;;5014655;28;20301;-72
2021/06/03 14:04:06;;;;;;;4.50;3.15;;;29.30;36.10;;;;;;5001261;28;20042;-72